Agra — V7JX6 — position and weather

sailwx.info

Track history (hours):
 
Tides and Currents Weather Stations Pressure Air Temp Water Temp Dewpoint Dewpoint Depression Visibility Wind Speed Wind Dir Waves Ship Positions

Agra

Last reported at 2018-Apr-21 17:00 UTC. Time now 2018-Apr-26 07:57 UTC.
Position N 18°22' E 067°39'.

Length 333 m; draft 11.5 m.

Type: Tanker. MMSI: 538002584.

Date/timePositionNaut miles runAvg speedWind from/ knotsBaromVisibWave heightAir tempDewpointWater temp
2018-Apr-21 17:00N 18°22' E 067°39'1314.2
2018-Apr-21 16:07N 18°32' E 067°32'1414.3
2018-Apr-21 15:09N 18°44' E 067°23'214.3
2018-Apr-21 14:59N 18°46' E 067°22'7814.1
2018-Apr-21 09:25N 19°51' E 066°35'1414.1
2018-Apr-21 08:26N 20°02' E 066°27'614.0
2018-Apr-21 08:00N 20°07' E 066°23'5714.2
2018-Apr-21 04:00N 20°54' E 065°49'5814.4
2018-Apr-20 23:58N 21°42' E 065°14'  
Track history (hours):
 
Tides and Currents Weather Stations Pressure Air Temp Water Temp Dewpoint Dewpoint Depression Visibility Wind Speed Wind Dir Waves Ship Positions

Agra

Last reported at 2018-Apr-21 17:00 UTC. Time now 2018-Apr-26 07:57 UTC.
Position N 18°22' E 067°39'.

Length 333 m; draft 11.5 m.

Type: Tanker. MMSI: 538002584.

Date/timePositionNaut miles runAvg speedWind from/ knotsBaromVisibWave heightAir tempDewpointWater temp
2018-Apr-21 17:00N 18°22' E 067°39'1314.2
2018-Apr-21 16:07N 18°32' E 067°32'1414.3
2018-Apr-21 15:09N 18°44' E 067°23'214.3
2018-Apr-21 14:59N 18°46' E 067°22'7814.1
2018-Apr-21 09:25N 19°51' E 066°35'1414.1
2018-Apr-21 08:26N 20°02' E 066°27'614.0
2018-Apr-21 08:00N 20°07' E 066°23'5714.2
2018-Apr-21 04:00N 20°54' E 065°49'5814.4
2018-Apr-20 23:58N 21°42' E 065°14'  

Dump ship's entire track history